Terminal Aerodrome Forecast
Issued by NWS Shreveport, LA

Home | Current Version | Previous Version | Text Only | Print | Product List | Glossary On
Versions: 1 2 3 4 5 6 7 8 9 10 11 12
000
FTUS44 KSHV 030522
TAFSHV
TAF
KSHV 030522Z 0306/0406 15004KT P6SM FEW070
     FM031500 21009KT P6SM SCT070 SCT250
     FM040100 15004KT P6SM FEW070=

USA.gov is the U.S. government's official web portal to all federal, state and local government web resources and services.